Pinnacle, Arkansas
Current Conditions -  °F | °C
As of 2:53 PM on Saturday 22 Nov 2014 (Local Time) from KLIT Reporting Station
Broken Clouds Broken Clouds  
Wind Chill: 67°   Ceiling: 25000
Heat Index: 67°   Visibility: 10mi
Dew Point: 50°   Wind: 8mph
Humidity: 54%   Direction: 120°ESE
Pressure: 30.01"   Gusts: NA
Location:  34.8869°N, 92.5324°W
Report Text: KLIT 222053Z 12007KT 10SM FEW045 SCT080 BKN250 19/10 A3001 RMK AO2 SLP163 T01940100 56042
Loading
Personal Weather Stations






























Interactive Weather Map New forecast layout! Learn more

10-Day Weather Forecast

Advertisements
Track Severe Weather on mobile